Breckenridge, TX

4:02 PM CST on December 21, 2014 (GMT -0600)
Southwest City | Change Station
CLOSE
Current Station
Personal Weather Station
Location: Breckenridge, TX
Elevation: 1263 ft
Nearby Weather Stations

Elev 1263 ft 32.75 °N, 98.93 °W | Updated 16 seconds ago

Haze
Haze
58.4 °F
Feels Like 58.4 °F
N
13.1
Wind Variable Wind from South
Gusts 14.0 mph

Today
High -- | Low -- °F
--% Chance of Precip.
Yesterday
High -- | Low -- °F
Precip. -- in
7:34 AM 5:33 PM
Waning Crescent, 0% visible
Pressure 29.77 in
Visibility 5.0 miles
Clouds Clear
Dew Point 46 °F
Humidity 63%
Rainfall 0.00 in
Snow Depth Not available.
UV 1 out of 12
Pollen 9.50 out of 12
Air Quality Not available.
Flu Activity Not available.
METAR KBKD 212155Z AUTO 19015G20KT 5SM HZ CLR 16/07 A2977 RMK AO2 T01570068

More Conditions Fewer Conditions

Pressure 29.77 in
Visibility 5.0 miles
Clouds Clear
Dew Point 46 °F
Humidity 63%
Rainfall 0.00 in
Snow Depth Not available.
UV 1 out of 12
Pollen 9.50 out of 12
Air Quality Not available.
Flu Activity Not available.
METAR KBKD 212155Z AUTO 19015G20KT 5SM HZ CLR 16/07 A2977 RMK AO2 T01570068

More Conditions Fewer Conditions

10-Day Weather Forecast

Almanac

Astronomy

Dec. 21, 2014 Rise Set
Actual Time
Civil Twilight
Nautical Twilight
Astronomical Twilight
Moon
Length of Visible Light
Length of Day
Tomorrow will be .
, % of the Moon is Illuminated

Today's Extremes

State Highs State Lows

Community

WunderPhotos

Upload Photos

1,779,494 photos uploaded!

WunderBlogs® & News

Nearby

Air Quality

  Air Quality AQ Index Pollutant
Not available.

Snow Depth

Station Depth Elevation

Earthquake Activity

City Distance Mag. Time & Date
Minimum magnitude displayed is 2.5.

Coastal Water Temperatures

Place Temperature

Nearby Weather Stations